Time;durP1;ratioP1;P1;durP2;ratioP2;P2;SDS_P1;SDS_P2;PMS_P1;PMS_P2;Temp;Humidity;BMP_temperature;BMP_pressure;BME280_temperature;BME280_humidity;BME280_pressure;Samples;Min_cycle;Max_cycle;Signal;HPM_P1;HPM_P2
2024/02/16 02:50:48;;;;;;;51.60;23.00;;;;;;;0.37;71.32;99728.27;105114;1289;635085;-91
2024/02/16 02:53:18;;;;;;;58.80;28.20;;;;;;;0.30;71.36;99727.02;104779;1272;94419;-84
2024/02/16 02:55:46;;;;;;;51.40;25.00;;;;;;;0.25;71.28;99728.50;105436;1259;94665;-78
2024/02/16 02:58:15;;;;;;;49.40;24.80;;;;;;;0.21;71.44;99731.55;105529;1259;106751;-90
2024/02/16 03:00:44;;;;;;;46.10;23.20;;;;;;;0.17;71.41;99732.17;105828;1262;94366;-80
2024/02/16 03:03:13;;;;;;;52.60;25.50;;;;;;;0.17;71.54;99733.73;104632;1265;429819;-78
2024/02/16 03:05:42;;;;;;;47.30;24.60;;;;;;;0.18;71.68;99731.80;105400;1259;94230;-89
2024/02/16 03:08:10;;;;;;;46.90;24.10;;;;;;;0.20;71.57;99733.86;105707;1259;94401;-91
2024/02/16 03:10:39;;;;;;;52.20;23.50;;;;;;;0.17;71.50;99729.71;105640;1260;107279;-89
2024/02/16 03:13:08;;;;;;;41.40;21.60;;;;;;;0.18;71.63;99730.92;105402;1259;94583;-90
2024/02/16 03:15:39;;;;;;;42.00;21.60;;;;;;;0.23;71.78;99732.75;105182;1256;106328;-91
2024/02/16 03:18:08;;;;;;;46.50;22.10;;;;;;;0.26;71.83;99737.56;105529;1256;95336;-92
2024/02/16 03:20:37;;;;;;;42.30;20.20;;;;;;;0.26;71.79;99738.25;105170;1260;95237;-87
2024/02/16 03:23:05;;;;;;;38.40;19.30;;;;;;;0.27;71.62;99737.89;105569;1253;107384;-89
2024/02/16 03:25:33;;;;;;;42.70;19.90;;;;;;;0.23;71.59;99742.85;105215;1253;95328;-90
2024/02/16 03:28:01;;;;;;;50.00;22.30;;;;;;;0.24;71.66;99742.31;106310;1253;107195;-84
2024/02/16 03:30:29;;;;;;;45.60;21.60;;;;;;;0.23;71.58;99742.48;105885;1265;95246;-88
2024/02/16 03:32:57;;;;;;;47.70;23.80;;;;;;;0.22;71.66;99737.10;105721;1257;95854;-88
2024/02/16 03:35:25;;;;;;;47.30;23.90;;;;;;;0.21;71.98;99738.70;105521;1253;108561;-84
2024/02/16 03:37:53;;;;;;;51.00;23.80;;;;;;;0.21;71.95;99738.89;105697;1257;95575;-90
2024/02/16 03:40:22;;;;;;;42.60;22.90;;;;;;;0.18;72.00;99737.38;105640;1253;107556;-87
2024/02/16 03:42:53;;;;;;;44.80;23.00;;;;;;;0.17;71.87;99740.01;105355;1260;95243;-90
2024/02/16 03:45:22;;;;;;;49.20;23.90;;;;;;;0.18;72.03;99741.56;105556;1258;95255;-82
2024/02/16 03:47:52;;;;;;;45.10;22.40;;;;;;;0.19;72.08;99742.93;105367;1253;108694;-91
2024/02/16 03:50:22;;;;;;;45.10;22.40;;;;;;;0.19;72.03;99741.90;105667;1256;95374;-80
2024/02/16 03:52:50;;;;;;;47.30;22.20;;;;;;;0.16;71.78;99742.48;105808;1260;107664;-91
2024/02/16 03:55:19;;;;;;;51.90;22.90;;;;;;;0.16;71.96;99742.29;105488;1257;95234;-88
2024/02/16 03:57:47;;;;;;;50.20;23.40;;;;;;;0.15;71.98;99740.91;105272;1258;95395;-90
2024/02/16 04:00:15;;;;;;;41.50;21.80;;;;;;;0.13;71.99;99742.53;106454;1253;107302;-81
2024/02/16 04:02:45;;;;;;;51.50;24.10;;;;;;;0.12;72.02;99744.98;108701;1253;94144;-75
2024/02/16 04:05:13;;;;;;;43.40;23.20;;;;;;;0.10;72.15;99745.55;105424;1253;106270;-92
2024/02/16 04:07:41;;;;;;;49.00;22.90;;;;;;;0.11;72.04;99746.23;105543;1258;95276;-89
2024/02/16 04:10:09;;;;;;;48.00;24.40;;;;;;;0.13;72.09;99747.06;105874;1259;95132;-91
2024/02/16 04:12:38;;;;;;;46.00;22.70;;;;;;;0.16;72.01;99747.54;105773;1259;107293;-91
2024/02/16 04:15:07;;;;;;;43.10;20.60;;;;;;;0.13;71.95;99745.66;105602;1257;95262;-86
2024/02/16 04:17:35;;;;;;;48.00;21.30;;;;;;;0.09;71.90;99746.80;105709;1259;107271;-92
2024/02/16 04:20:03;;;;;;;43.00;19.80;;;;;;;0.04;71.75;99748.60;105601;1259;95253;-92
2024/02/16 04:22:37;;;;;;;44.90;20.90;;;;;;;0.03;72.09;99746.20;105147;1262;96064;-92
2024/02/16 04:25:05;;;;;;;45.60;22.20;;;;;;;0.02;71.95;99745.70;105280;1259;108635;-91
2024/02/16 04:27:34;;;;;;;43.40;20.60;;;;;;;0.00;71.93;99749.91;105574;1267;95869;-91
2024/02/16 04:30:04;;;;;;;43.90;20.80;;;;;;;-0.01;71.84;99750.63;106229;1253;107657;-92
2024/02/16 04:32:32;;;;;;;36.10;19.20;;;;;;;-0.04;72.00;99749.11;106385;1253;95237;-88
2024/02/16 04:35:00;;;;;;;39.90;17.90;;;;;;;-0.06;71.99;99745.66;106750;1259;95412;-92
2024/02/16 04:37:29;;;;;;;39.40;18.40;;;;;;;-0.07;71.97;99747.42;106205;1253;107546;-85
2024/02/16 04:39:59;;;;;;;39.20;19.90;;;;;;;-0.09;71.83;99745.89;106025;1253;95512;-90
2024/02/16 04:42:29;;;;;;;43.80;19.30;;;;;;;-0.11;71.91;99743.67;106102;1253;107296;-90
2024/02/16 04:44:58;;;;;;;35.70;18.10;;;;;;;-0.11;71.94;99741.92;105578;1256;95313;-84
2024/02/16 04:47:27;;;;;;;33.60;16.50;;;;;;;-0.12;71.89;99740.54;105929;1258;95243;-77
2024/02/16 04:49:55;;;;;;;36.10;17.20;;;;;;;-0.14;72.19;99741.80;105831;1264;108586;-78
2024/02/16 04:52:23;;;;;;;33.40;16.10;;;;;;;-0.15;71.99;99736.41;105394;1259;95349;-83
2024/02/16 04:54:56;;;;;;;35.80;17.80;;;;;;;-0.16;72.20;99737.98;105730;1259;107523;-75
2024/02/16 04:57:24;;;;;;;33.10;16.70;;;;;;;-0.18;72.05;99738.72;105410;1253;96069;-88
2024/02/16 04:59:52;;;;;;;33.90;16.70;;;;;;;-0.19;72.05;99736.13;105288;1259;95328;-86
2024/02/16 05:02:20;;;;;;;36.70;17.60;;;;;;;-0.21;72.05;99739.31;106010;1253;107181;-89
2024/02/16 05:04:48;;;;;;;34.80;17.50;;;;;;;-0.24;72.01;99740.05;105915;1259;95328;-88
2024/02/16 05:07:16;;;;;;;34.70;17.70;;;;;;;-0.25;72.10;99745.66;105819;1262;106345;-87
2024/02/16 05:09:46;;;;;;;36.20;17.50;;;;;;;-0.25;72.01;99747.05;106534;1258;95394;-89
2024/02/16 05:12:14;;;;;;;36.20;17.70;;;;;;;-0.27;72.14;99749.88;106222;1253;95326;-87
2024/02/16 05:14:42;;;;;;;47.10;18.90;;;;;;;-0.29;72.14;99755.13;106981;1253;106247;-88
2024/02/16 05:17:10;;;;;;;40.90;19.20;;;;;;;-0.29;72.13;99749.38;107544;1253;94286;-79
2024/02/16 05:19:40;;;;;;;42.00;19.90;;;;;;;-0.28;72.25;99750.40;108567;1253;106151;-78
2024/02/16 05:22:09;;;;;;;43.50;20.40;;;;;;;-0.27;72.07;99750.22;105899;1258;96171;-79
2024/02/16 05:24:37;;;;;;;40.20;19.60;;;;;;;-0.30;72.21;99746.25;105835;1259;95336;-89
2024/02/16 05:27:05;;;;;;;34.20;18.00;;;;;;;-0.32;72.01;99752.90;105549;1258;108655;-89
2024/02/16 05:29:34;;;;;;;39.30;19.00;;;;;;;-0.34;72.23;99756.25;105536;1259;95162;-87
2024/02/16 05:32:02;;;;;;;39.30;18.40;;;;;;;-0.35;72.20;99758.71;106440;1257;106430;-89
2024/02/16 05:34:37;;;;;;;44.80;19.60;;;;;;;-0.36;72.23;99755.59;105542;1259;95257;-72
2024/02/16 05:38:01;;;;;;;41.00;19.80;;;;;;;-0.35;72.21;99758.02;105653;1253;95259;-76
2024/02/16 05:40:56;;;;;;;38.30;18.00;;;;;;;-0.37;72.28;99759.09;105695;1257;107800;-77
2024/02/16 05:43:24;;;;;;;;;;;;;;;-0.39;72.31;99762.77;105666;1257;96064;-71
2024/02/16 05:46:00;;;;;;;40.00;20.30;;;;;;;-0.38;72.38;99762.42;105483;1257;107384;-76
2024/02/16 05:48:30;;;;;;;37.40;18.60;;;;;;;-0.37;72.37;99762.74;105564;1256;95149;-77
2024/02/16 05:51:02;;;;;;;42.10;21.10;;;;;;;-0.41;72.11;99764.75;105417;1257;95333;-74
2024/02/16 05:53:34;;;;;;;44.10;20.10;;;;;;;-0.43;72.28;99769.30;105834;1256;108495;-73
2024/02/16 05:56:02;;;;;;;40.00;20.40;;;;;;;-0.43;72.31;99770.19;105686;1256;95546;-74
2024/02/16 05:58:31;;;;;;;45.20;21.60;;;;;;;-0.43;72.34;99769.14;105662;1268;107291;-74
2024/02/16 06:00:59;;;;;;;42.60;20.60;;;;;;;-0.42;72.53;99771.91;105522;1256;95271;-76
2024/02/16 06:03:35;;;;;;;37.60;18.60;;;;;;;-0.42;72.38;99774.87;105260;1254;95317;-84
2024/02/16 06:06:06;;;;;;;39.40;21.20;;;;;;;-0.41;72.81;99773.27;105291;1265;110382;-76
2024/02/16 06:08:34;;;;;;;43.00;20.90;;;;;;;-0.38;72.68;99780.20;106091;1255;95541;-71
2024/02/16 06:11:02;;;;;;;44.20;21.70;;;;;;;-0.35;72.57;99780.67;105916;1256;106149;-70
2024/02/16 06:13:30;;;;;;;45.10;23.40;;;;;;;-0.35;72.48;99780.49;108750;1252;93164;-73
2024/02/16 06:15:57;;;;;;;52.20;26.30;;;;;;;-0.35;72.45;99785.71;107700;1255;95244;-70
2024/02/16 06:18:29;;;;;;;49.20;22.00;;;;;;;-0.32;72.57;99788.64;105540;1266;109070;-69
2024/02/16 06:20:57;;;;;;;46.70;23.70;;;;;;;-0.29;72.68;99789.65;106207;1255;95281;-71
2024/02/16 06:23:25;;;;;;;45.30;22.60;;;;;;;-0.25;72.56;99791.49;105890;1256;107753;-69
2024/02/16 06:25:53;;;;;;;52.50;23.60;;;;;;;-0.21;72.76;99790.20;106084;1255;95257;-69
2024/02/16 06:28:22;;;;;;;41.40;20.30;;;;;;;-0.18;72.65;99791.71;105455;1260;95234;-73
2024/02/16 06:30:50;;;;;;;47.60;22.70;;;;;;;-0.18;72.69;99792.92;106875;1255;108552;-70
2024/02/16 06:33:19;;;;;;;44.70;21.90;;;;;;;-0.15;72.86;99792.88;105355;1259;96190;-71
2024/02/16 06:35:50;;;;;;;46.40;22.50;;;;;;;-0.09;72.83;99797.16;105536;1266;107676;-70
2024/02/16 06:38:18;;;;;;;45.50;22.70;;;;;;;-0.05;72.84;99799.17;105510;1265;95249;-70
2024/02/16 06:40:46;;;;;;;45.60;22.10;;;;;;;-0.01;72.79;99798.77;105328;1265;95224;-70
2024/02/16 06:43:14;;;;;;;53.30;23.30;;;;;;;0.03;72.80;99796.77;105477;1256;109734;-72
2024/02/16 06:45:42;;;;;;;52.70;24.00;;;;;;;0.09;73.01;99801.21;105593;1254;95274;-71
2024/02/16 06:48:10;;;;;;;42.00;20.30;;;;;;;0.13;73.18;99799.02;105456;1255;107673;-72
2024/02/16 06:50:38;;;;;;;40.60;20.40;;;;;;;0.20;73.24;99800.14;105394;1266;95199;-71
2024/02/16 06:53:06;;;;;;;49.70;23.60;;;;;;;0.27;73.14;99800.70;105423;1257;95189;-73
2024/02/16 06:55:33;;;;;;;38.10;20.20;;;;;;;0.35;73.39;99801.59;105261;1270;108531;-73
2024/02/16 06:58:01;;;;;;;46.90;23.60;;;;;;;0.42;73.17;99801.10;105157;1258;96017;-71
2024/02/16 07:00:29;;;;;;;50.10;23.40;;;;;;;0.49;73.43;99803.77;105198;1257;107212;-74
2024/02/16 07:02:57;;;;;;;43.90;22.30;;;;;;;0.57;73.50;99804.13;105530;1258;96498;-71
2024/02/16 07:05:27;;;;;;;45.60;21.20;;;;;;;0.67;73.76;99805.34;105708;1256;96962;-70
2024/02/16 07:07:55;;;;;;;47.10;20.70;;;;;;;0.77;73.55;99802.86;105469;1256;109711;-73
2024/02/16 07:10:24;;;;;;;42.30;21.40;;;;;;;0.84;73.67;99803.06;105217;1257;96594;-72
2024/02/16 07:12:52;;;;;;;39.30;21.30;;;;;;;0.91;73.74;99810.95;105410;1257;107279;-71
2024/02/16 07:15:19;;;;;;;37.70;19.40;;;;;;;0.98;73.85;99806.96;105311;1264;97906;-71
2024/02/16 07:17:47;;;;;;;55.90;24.20;;;;;;;1.06;74.05;99807.31;105624;1256;96606;-71
2024/02/16 07:20:15;;;;;;;44.70;23.00;;;;;;;1.13;74.16;99807.16;105453;1257;109505;-72
2024/02/16 07:22:46;;;;;;;50.30;25.00;;;;;;;1.19;74.17;99804.95;105653;1255;96583;-73
2024/02/16 07:25:14;;;;;;;38.70;22.50;;;;;;;1.25;74.17;99806.20;105365;1266;107312;-74
2024/02/16 07:27:42;;;;;;;41.00;21.60;;;;;;;1.30;74.34;99805.38;105283;1266;97901;-72
2024/02/16 07:30:13;;;;;;;42.40;21.20;;;;;;;1.38;74.31;99806.09;106163;1252;96683;-72
2024/02/16 07:32:52;;;;;;;38.40;19.90;;;;;;;1.48;74.63;99803.93;105527;1254;108387;-74
2024/02/16 07:35:24;;;;;;;40.60;21.30;;;;;;;1.59;74.31;99806.65;105180;1267;98258;-72
2024/02/16 07:37:54;;;;;;;40.40;20.00;;;;;;;1.68;74.58;99806.61;105457;1266;107449;-74
2024/02/16 07:40:24;;;;;;;40.50;19.10;;;;;;;1.76;74.49;99807.98;105291;1257;96617;-76
2024/02/16 07:42:52;;;;;;;39.20;20.60;;;;;;;1.86;74.58;99805.47;105521;1266;97385;-72
2024/02/16 07:45:21;;;;;;;37.40;19.80;;;;;;;1.95;74.79;99808.92;105185;1259;109915;-73
2024/02/16 07:48:19;;;;;;;38.80;19.20;;;;;;;2.06;74.52;99808.45;105588;1253;97737;-75
2024/02/16 07:51:40;;;;;;;32.80;14.90;;;;;;;2.29;74.79;99804.21;106045;1257;108282;-76
2024/02/16 07:54:34;;;;;;;27.70;13.10;;;;;;;2.48;74.93;99807.01;105408;1256;96590;-76
2024/02/16 07:57:05;;;;;;;28.40;13.10;;;;;;;2.69;75.14;99809.76;105477;1254;97809;-75
2024/02/16 07:59:35;;;;;;;24.70;12.70;;;;;;;2.86;75.07;99802.61;105415;1256;108579;-77
2024/02/16 08:02:15;;;;;;;24.60;12.00;;;;;;;3.05;75.07;99803.11;105339;1257;96597;-76
2024/02/16 08:04:49;;;;;;;25.40;11.40;;;;;;;3.21;75.07;99800.91;105333;1264;107515;-75
2024/02/16 08:07:17;;;;;;;26.70;13.70;;;;;;;3.38;75.13;99798.09;105373;1256;96586;-75
2024/02/16 08:09:46;;;;;;;26.30;12.40;;;;;;;3.52;75.16;99802.03;105648;1252;97921;-72
2024/02/16 08:12:16;;;;;;;29.00;15.00;;;;;;;3.66;75.15;99798.95;108728;1252;109909;-69
2024/02/16 08:14:46;;;;;;;27.90;14.20;;;;;;;3.79;74.93;99796.95;108694;1255;96183;-73
2024/02/16 08:17:14;;;;;;;31.40;15.20;;;;;;;3.93;74.93;99799.98;105849;1256;107678;-70
2024/02/16 08:19:53;;;;;;;27.40;13.50;;;;;;;4.08;74.99;99791.79;107351;1257;97950;-73
2024/02/16 08:22:22;;;;;;;25.90;13.60;;;;;;;4.19;75.00;99792.11;105363;1256;96677;-70
2024/02/16 08:24:50;;;;;;;23.30;12.00;;;;;;;4.32;74.93;99791.27;105660;1256;110539;-69
2024/02/16 08:27:18;;;;;;;24.10;12.00;;;;;;;4.42;75.02;99792.35;105399;1263;96595;-70
2024/02/16 08:29:46;;;;;;;17.80;10.50;;;;;;;4.54;75.10;99792.42;105472;1259;107367;-71
2024/02/16 08:32:16;;;;;;;22.80;11.70;;;;;;;4.67;75.13;99793.20;105334;1265;96619;-69
2024/02/16 08:34:44;;;;;;;21.50;12.50;;;;;;;4.79;75.14;99787.16;105378;1258;96584;-72
2024/02/16 08:37:12;;;;;;;21.60;11.80;;;;;;;4.89;75.07;99796.98;105460;1267;109356;-71
2024/02/16 08:39:41;;;;;;;21.90;11.20;;;;;;;4.96;75.06;99797.25;105419;1256;96604;-70
2024/02/16 08:42:11;;;;;;;24.70;12.00;;;;;;;5.03;75.13;99796.63;105529;1256;107653;-73
2024/02/16 08:44:41;;;;;;;17.60;9.80;;;;;;;5.12;75.17;99791.90;105386;1265;96709;-70
2024/02/16 08:47:09;;;;;;;18.40;9.70;;;;;;;5.20;75.18;99792.99;105546;1265;96522;-71
2024/02/16 08:49:38;;;;;;;16.40;10.10;;;;;;;5.28;75.18;99791.45;105286;1257;109462;-70
2024/02/16 08:52:06;;;;;;;18.80;10.20;;;;;;;5.35;75.20;99790.13;105916;1257;96592;-75
2024/02/16 08:54:34;;;;;;;17.20;9.90;;;;;;;5.43;75.16;99787.32;105432;1260;107223;-71
2024/02/16 08:57:02;;;;;;;19.10;10.00;;;;;;;5.54;75.20;99783.90;105616;1266;96574;-72
2024/02/16 08:59:30;;;;;;;23.50;12.30;;;;;;;5.65;75.34;99785.73;105545;1253;96575;-73
2024/02/16 09:01:58;;;;;;;18.30;11.20;;;;;;;5.73;75.03;99781.04;105680;1254;109963;-71
2024/02/16 09:04:26;;;;;;;23.50;11.20;;;;;;;5.81;75.06;99783.18;105421;1269;97194;-72
2024/02/16 09:06:54;;;;;;;19.40;11.60;;;;;;;5.84;75.01;99785.16;105501;1254;105601;-72
2024/02/16 09:09:22;;;;;;;21.90;12.30;;;;;;;5.87;75.10;99784.36;105496;1256;96608;-71
2024/02/16 09:11:51;;;;;;;18.80;11.00;;;;;;;5.96;75.21;99788.89;105649;1257;97522;-69
2024/02/16 09:14:18;;;;;;;23.60;12.60;;;;;;;6.03;75.14;99782.64;105568;1254;109084;-70
2024/02/16 09:16:52;;;;;;;20.40;11.80;;;;;;;6.08;75.16;99783.33;105655;1260;97523;-71
2024/02/16 09:19:21;;;;;;;24.10;12.10;;;;;;;6.21;75.12;99782.58;105258;1266;107806;-76
2024/02/16 09:21:51;;;;;;;15.50;9.60;;;;;;;6.32;75.20;99779.30;105533;1266;96661;-71
2024/02/16 09:24:22;;;;;;;17.70;9.40;;;;;;;6.36;75.19;99781.57;105335;1254;96843;-71
2024/02/16 09:26:50;;;;;;;16.50;9.80;;;;;;;6.48;75.21;99783.35;105869;1254;109717;-71
2024/02/16 09:29:17;;;;;;;19.40;11.00;;;;;;;6.56;75.19;99784.04;105677;1256;96593;-70
2024/02/16 09:31:50;;;;;;;15.70;8.30;;;;;;;6.62;75.14;99785.37;105599;1255;107375;-70
2024/02/16 09:34:18;;;;;;;15.40;9.00;;;;;;;6.72;75.22;99777.90;105474;1254;97910;-69
2024/02/16 09:36:46;;;;;;;13.90;8.00;;;;;;;6.79;75.19;99777.91;105454;1257;96711;-70
2024/02/16 09:39:14;;;;;;;17.50;8.90;;;;;;;6.92;75.33;99776.28;105547;1253;108718;-72
2024/02/16 09:41:45;;;;;;;16.10;8.10;;;;;;;7.02;74.97;99779.00;105552;1254;97442;-70
2024/02/16 09:44:14;;;;;;;14.40;8.00;;;;;;;7.02;74.97;99779.17;105505;1264;107139;-73
2024/02/16 09:46:42;;;;;;;12.20;8.40;;;;;;;7.03;75.06;99783.19;105519;1257;97611;-71
2024/02/16 09:49:10;;;;;;;14.30;8.20;;;;;;;7.10;75.06;99784.28;105272;1257;97413;-71
2024/02/16 09:51:38;;;;;;;12.50;7.30;;;;;;;7.17;75.02;99782.36;105318;1266;110037;-70
2024/02/16 09:54:07;;;;;;;12.10;6.70;;;;;;;7.24;74.91;99780.98;105364;1258;96638;-72
2024/02/16 09:56:35;;;;;;;12.10;7.30;;;;;;;7.29;74.97;99779.31;105528;1257;107614;-68
2024/02/16 09:59:03;;;;;;;13.50;8.20;;;;;;;7.40;75.03;99776.16;105108;1268;96615;-72
2024/02/16 10:01:36;;;;;;;11.80;8.10;;;;;;;7.43;74.78;99773.18;105599;1256;97797;-67
2024/02/16 10:04:09;;;;;;;15.80;7.50;;;;;;;7.45;74.88;99774.48;105379;1266;109889;-69
2024/02/16 10:06:48;;;;;;;16.60;8.30;;;;;;;7.53;74.95;99771.80;105449;1259;96648;-70
2024/02/16 10:09:26;;;;;;;;;;;;;;;7.60;75.00;99769.72;105227;1254;107535;-69
2024/02/16 10:11:53;;;;;;;12.80;7.50;;;;;;;7.65;74.87;99768.98;105317;1258;96652;-72
2024/02/16 10:14:21;;;;;;;14.40;7.70;;;;;;;7.67;74.76;99767.98;105426;1256;96502;-71
2024/02/16 10:17:02;;;;;;;11.00;7.10;;;;;;;7.72;74.72;99769.33;105198;1264;110495;-74
2024/02/16 10:19:39;;;;;;;10.70;7.40;;;;;;;7.81;74.87;99767.27;105374;1257;98220;-70
2024/02/16 10:22:12;;;;;;;14.70;8.30;;;;;;;7.91;74.96;99766.58;105284;1256;107772;-71
2024/02/16 10:24:42;;;;;;;11.70;7.20;;;;;;;7.98;74.78;99762.88;105335;1255;96700;-70
2024/02/16 10:27:18;;;;;;;14.40;7.90;;;;;;;8.01;74.71;99763.23;105521;1257;97912;-70
2024/02/16 10:29:50;;;;;;;16.20;8.50;;;;;;;8.05;74.67;99761.48;105313;1257;109397;-73
2024/02/16 10:32:19;;;;;;;15.30;7.50;;;;;;;8.11;74.68;99758.36;105453;1257;96646;-70
2024/02/16 10:34:49;;;;;;;13.80;7.90;;;;;;;8.16;74.67;99753.46;105189;1257;107537;-70
2024/02/16 10:37:18;;;;;;;15.80;9.30;;;;;;;8.20;74.67;99758.03;105377;1258;97804;-70
2024/02/16 10:39:47;;;;;;;12.40;8.00;;;;;;;8.26;74.40;99761.64;105475;1256;96582;-72
2024/02/16 10:42:16;;;;;;;13.60;7.60;;;;;;;8.35;74.58;99756.59;105473;1254;110414;-71
2024/02/16 10:44:46;;;;;;;14.70;7.80;;;;;;;8.40;74.46;99753.15;105372;1256;96657;-69
2024/02/16 10:47:14;;;;;;;13.90;8.20;;;;;;;8.44;74.51;99754.34;105669;1266;107062;-70
2024/02/16 10:49:42;;;;;;;16.20;9.30;;;;;;;8.49;74.55;99749.70;105460;1257;96612;-70
2024/02/16 10:52:14;;;;;;;16.40;9.20;;;;;;;8.52;74.38;99747.45;105729;1256;96642;-70
2024/02/16 10:54:42;;;;;;;16.80;8.90;;;;;;;8.61;74.30;99743.73;105796;1254;109557;-69
2024/02/16 10:57:11;;;;;;;14.90;7.90;;;;;;;8.66;74.25;99740.68;105699;1257;97813;-70
2024/02/16 10:59:47;;;;;;;14.10;7.40;;;;;;;8.68;74.20;99743.93;105559;1265;107422;-74
2024/02/16 11:03:41;;;;;;;12.30;7.10;;;;;;;8.80;74.25;99736.03;102367;1292;635630;-71
2024/02/16 11:06:16;;;;;;;16.90;8.90;;;;;;;8.85;74.23;99733.81;104879;1263;94318;-68
2024/02/16 11:08:48;;;;;;;13.40;8.10;;;;;;;8.88;74.11;99727.98;104702;1264;94307;-68
2024/02/16 11:11:23;;;;;;;12.90;8.20;;;;;;;8.94;74.18;99722.55;104975;1267;106766;-73
2024/02/16 11:13:54;;;;;;;16.10;9.10;;;;;;;9.00;74.01;99714.23;104990;1263;95513;-72
2024/02/16 11:16:22;;;;;;;16.80;9.90;;;;;;;9.01;74.04;99706.71;98178;1270;9283826;-71
2024/02/16 11:18:50;;;;;;;14.30;9.00;;;;;;;9.05;74.02;99712.70;104816;1267;94321;-71
2024/02/16 11:21:18;;;;;;;16.30;9.60;;;;;;;9.09;73.96;99711.41;105613;1254;107134;-72
2024/02/16 11:23:47;;;;;;;16.70;8.70;;;;;;;9.13;73.65;99710.69;105472;1251;95776;-69
2024/02/16 11:26:17;;;;;;;16.60;9.20;;;;;;;9.17;73.92;99705.65;105636;1254;108088;-73
2024/02/16 11:28:46;;;;;;;15.00;9.40;;;;;;;9.19;73.73;99703.60;105746;1254;95261;-77
2024/02/16 11:31:14;;;;;;;14.70;7.90;;;;;;;9.22;73.55;99696.88;105680;1258;95233;-72
2024/02/16 11:33:45;;;;;;;14.80;8.20;;;;;;;9.27;73.62;99692.77;105516;1258;107337;-71
2024/02/16 11:36:13;;;;;;;14.70;9.20;;;;;;;9.30;73.57;99687.81;105778;1254;95462;-73
2024/02/16 11:38:41;;;;;;;15.50;7.30;;;;;;;9.30;73.43;99693.98;105490;1251;107253;-72
2024/02/16 11:41:09;;;;;;;12.40;6.80;;;;;;;9.36;73.44;99693.08;105764;1254;95261;-73
2024/02/16 11:43:37;;;;;;;14.70;7.80;;;;;;;9.45;73.54;99690.46;105503;1258;96212;-69
2024/02/16 11:46:16;;;;;;;9.80;6.40;;;;;;;9.52;73.43;99685.27;105721;1254;108560;-70
2024/02/16 11:48:44;;;;;;;11.30;7.10;;;;;;;9.58;73.24;99679.47;105348;1261;95204;-69
2024/02/16 11:51:17;;;;;;;11.50;6.40;;;;;;;9.61;73.38;99677.48;105595;1255;107656;-69
2024/02/16 11:53:56;;;;;;;10.70;7.10;;;;;;;9.66;73.30;99673.27;105559;1255;95306;-68
2024/02/16 11:56:25;;;;;;;10.30;6.50;;;;;;;9.64;73.08;99676.27;105741;1250;95224;-69
2024/02/16 11:58:54;;;;;;;10.10;6.40;;;;;;;9.67;73.07;99671.13;105695;1254;108246;-69
2024/02/16 12:01:22;;;;;;;9.60;6.30;;;;;;;9.71;73.08;99668.58;105741;1254;95342;-70
2024/02/16 12:03:50;;;;;;;11.20;6.40;;;;;;;9.72;72.77;99667.68;105351;1256;107541;-74
2024/02/16 12:06:21;;;;;;;11.40;6.00;;;;;;;9.72;72.80;99668.21;105558;1254;96068;-71
2024/02/16 12:08:52;;;;;;;9.20;5.70;;;;;;;9.70;72.67;99666.38;105438;1254;95342;-71
2024/02/16 12:11:20;;;;;;;8.60;6.20;;;;;;;9.73;72.93;99662.45;105727;1252;108594;-74
2024/02/16 12:13:49;;;;;;;10.20;5.50;;;;;;;9.76;72.83;99662.26;105796;1251;95249;-69
2024/02/16 12:16:18;;;;;;;9.90;5.50;;;;;;;9.79;72.75;99658.20;105496;1255;107283;-69
2024/02/16 12:18:46;;;;;;;10.00;5.50;;;;;;;9.83;72.72;99660.07;105638;1257;95266;-72
2024/02/16 12:21:19;;;;;;;8.80;5.30;;;;;;;9.87;72.62;99656.15;105749;1257;95244;-70
2024/02/16 12:23:47;;;;;;;8.80;5.60;;;;;;;9.93;72.84;99651.39;105476;1251;108222;-71
2024/02/16 12:26:15;;;;;;;9.70;6.10;;;;;;;9.98;72.59;99650.51;105429;1251;95325;-69
2024/02/16 12:28:43;;;;;;;9.90;5.90;;;;;;;10.07;72.52;99646.61;105475;1251;107303;-70
2024/02/16 12:31:18;;;;;;;10.40;6.20;;;;;;;10.11;72.45;99639.30;105476;1254;96462;-71
2024/02/16 12:33:46;;;;;;;9.90;5.70;;;;;;;10.14;72.15;99634.45;105689;1250;95216;-69
2024/02/16 12:36:15;;;;;;;11.20;5.70;;;;;;;10.18;72.11;99631.77;105538;1257;108701;-70
2024/02/16 12:38:43;;;;;;;8.70;5.30;;;;;;;10.21;72.30;99631.76;105754;1254;96558;-69
2024/02/16 12:41:11;;;;;;;9.30;5.40;;;;;;;10.26;72.18;99629.84;105908;1250;107687;-70
2024/02/16 12:43:39;;;;;;;10.00;6.10;;;;;;;10.26;72.07;99630.73;105377;1254;95265;-68
2024/02/16 12:46:06;;;;;;;8.60;5.20;;;;;;;10.27;71.98;99630.13;105306;1258;96171;-77
2024/02/16 12:48:34;;;;;;;9.90;5.60;;;;;;;10.29;72.05;99630.00;105435;1257;109895;-71
2024/02/16 12:51:02;;;;;;;7.60;5.20;;;;;;;10.31;72.00;99629.71;105634;1251;95922;-71
2024/02/16 12:53:40;;;;;;;7.50;5.10;;;;;;;10.35;71.85;99628.77;105382;1251;108058;-69
2024/02/16 12:56:09;;;;;;;9.00;5.50;;;;;;;10.37;71.80;99627.73;105476;1265;95247;-72
2024/02/16 12:58:37;;;;;;;8.60;5.20;;;;;;;10.42;71.85;99624.77;105501;1254;96296;-70
2024/02/16 13:01:06;;;;;;;8.10;5.20;;;;;;;10.47;71.80;99626.80;105484;1251;108513;-70
2024/02/16 13:03:47;;;;;;;9.50;5.00;;;;;;;10.48;71.57;99620.52;105552;1251;95160;-69
2024/02/16 13:06:15;;;;;;;9.10;5.50;;;;;;;10.49;71.54;99619.91;105653;1255;109378;-70
2024/02/16 13:08:43;;;;;;;10.60;6.40;;;;;;;10.54;71.58;99619.79;105440;1257;95612;-69
2024/02/16 13:11:12;;;;;;;9.10;5.60;;;;;;;10.59;71.49;99616.86;105402;1257;95151;-70
2024/02/16 13:13:40;;;;;;;7.90;5.20;;;;;;;10.60;71.37;99613.77;105552;1250;107402;-70
2024/02/16 13:16:08;;;;;;;10.90;5.00;;;;;;;10.56;71.09;99618.96;105750;1250;96161;-71
2024/02/16 13:18:36;;;;;;;7.20;4.50;;;;;;;10.61;71.33;99614.05;105623;1254;107561;-70
2024/02/16 13:21:04;;;;;;;8.30;5.00;;;;;;;10.65;71.08;99615.20;105770;1254;95231;-72
2024/02/16 13:23:32;;;;;;;7.90;5.20;;;;;;;10.64;71.08;99616.46;105333;1254;95233;-71
2024/02/16 13:26:00;;;;;;;7.70;5.50;;;;;;;10.64;71.02;99615.77;105544;1251;108616;-70
2024/02/16 13:28:28;;;;;;;16.00;9.10;;;;;;;10.66;70.80;99616.40;105455;1251;95526;-69
2024/02/16 13:30:56;;;;;;;19.60;10.30;;;;;;;10.61;70.74;99619.01;105727;1251;107285;-70
2024/02/16 13:33:23;;;;;;;20.10;11.50;;;;;;;10.59;70.91;99616.31;105619;1251;95214;-69
2024/02/16 13:35:52;;;;;;;16.80;8.70;;;;;;;10.61;70.68;99619.52;105616;1256;95368;-69
2024/02/16 13:38:19;;;;;;;13.10;6.70;;;;;;;10.62;70.83;99616.27;105370;1251;108548;-69
2024/02/16 13:40:49;;;;;;;11.30;5.50;;;;;;;10.60;70.48;99621.17;105677;1254;95333;-70
2024/02/16 13:43:17;;;;;;;10.30;6.30;;;;;;;10.57;70.39;99616.77;105664;1258;107174;-70
2024/02/16 13:45:51;;;;;;;9.70;6.10;;;;;;;10.61;70.43;99617.08;105330;1255;95227;-68
2024/02/16 13:48:19;;;;;;;10.20;5.90;;;;;;;10.62;70.39;99613.42;105525;1254;95244;-69
2024/02/16 13:50:48;;;;;;;12.00;7.00;;;;;;;10.62;70.27;99609.03;105451;1251;108510;-70
2024/02/16 13:53:16;;;;;;;14.30;7.30;;;;;;;10.60;70.23;99611.45;105808;1256;95189;-69
2024/02/16 13:55:49;;;;;;;10.50;6.00;;;;;;;10.55;70.20;99610.52;105614;1256;107607;-74
2024/02/16 13:58:17;;;;;;;7.70;5.40;;;;;;;10.55;70.13;99607.86;105731;1256;95321;-70
2024/02/16 14:00:45;;;;;;;11.40;6.50;;;;;;;10.55;70.04;99610.14;105468;1250;95336;-71
2024/02/16 14:03:14;;;;;;;11.60;6.30;;;;;;;10.55;69.91;99607.14;105724;1250;108642;-72
2024/02/16 14:05:46;;;;;;;13.30;7.90;;;;;;;10.52;69.87;99609.14;105613;1254;95256;-72
2024/02/16 14:08:15;;;;;;;17.30;10.20;;;;;;;10.49;69.85;99608.75;105721;1251;107376;-76
2024/02/16 14:10:57;;;;;;;18.70;9.70;;;;;;;10.45;69.66;99612.89;105822;1251;95246;-76
2024/02/16 14:13:28;;;;;;;;;;;;;;;10.47;69.66;99610.32;105412;1251;95310;-71
2024/02/16 14:15:56;;;;;;;11.00;6.40;;;;;;;10.46;69.67;99614.48;105814;1250;109188;-70
2024/02/16 14:18:24;;;;;;;10.40;5.00;;;;;;;10.50;69.63;99613.45;105718;1257;96175;-71
2024/02/16 14:21:02;;;;;;;10.60;5.50;;;;;;;10.52;69.51;99612.84;105629;1267;107123;-71